sensor_id;sensor_type;location;lat;lon;timestamp;temperature;humidity
5631;DHT22;2837;50.990;7.124;2023-08-20T05:05:49;21.20;99.90
5631;DHT22;2837;50.990;7.124;2023-08-20T05:08:15;21.20;99.90
5631;DHT22;2837;50.990;7.124;2023-08-20T05:10:42;21.20;99.90
5631;DHT22;2837;50.990;7.124;2023-08-20T05:13:10;21.20;99.90
5631;DHT22;2837;50.990;7.124;2023-08-20T05:15:36;21.20;99.90
5631;DHT22;2837;50.990;7.124;2023-08-20T05:18:02;21.20;99.90
5631;DHT22;2837;50.990;7.124;2023-08-20T05:20:27;21.20;99.90
5631;DHT22;2837;50.990;7.124;2023-08-20T05:30:11;21.20;99.90
5631;DHT22;2837;50.990;7.124;2023-08-20T05:32:37;21.20;99.90
5631;DHT22;2837;50.990;7.124;2023-08-20T05:35:02;21.20;99.90
5631;DHT22;2837;50.990;7.124;2023-08-20T05:37:29;21.20;99.90
5631;DHT22;2837;50.990;7.124;2023-08-20T05:39:55;21.20;99.90
5631;DHT22;2837;50.990;7.124;2023-08-20T05:42:20;21.20;99.90
5631;DHT22;2837;50.990;7.124;2023-08-20T05:49:38;21.30;99.90
5631;DHT22;2837;50.990;7.124;2023-08-20T05:54:29;21.30;99.90
5631;DHT22;2837;50.990;7.124;2023-08-20T05:59:21;21.30;99.90
5631;DHT22;2837;50.990;7.124;2023-08-20T06:04:12;21.30;99.90
5631;DHT22;2837;50.990;7.124;2023-08-20T06:11:30;21.40;99.90
5631;DHT22;2837;50.990;7.124;2023-08-20T06:26:05;21.50;99.90
5631;DHT22;2837;50.990;7.124;2023-08-20T06:38:14;21.50;99.90
5631;DHT22;2837;50.990;7.124;2023-08-20T06:45:32;21.60;99.90
5631;DHT22;2837;50.990;7.124;2023-08-20T06:47:57;21.60;99.90
5631;DHT22;2837;50.990;7.124;2023-08-20T06:55:15;21.60;99.90
5631;DHT22;2837;50.990;7.124;2023-08-20T06:57:40;21.60;99.90
5631;DHT22;2837;50.990;7.124;2023-08-20T07:00:06;21.60;99.90
5631;DHT22;2837;50.990;7.124;2023-08-20T07:02:32;21.60;99.90
5631;DHT22;2837;50.990;7.124;2023-08-20T07:04:58;21.60;99.90
5631;DHT22;2837;50.990;7.124;2023-08-20T07:21:59;21.70;99.90
5631;DHT22;2837;50.990;7.124;2023-08-20T07:24:25;21.70;99.90
5631;DHT22;2837;50.990;7.124;2023-08-20T07:26:51;21.70;99.90
5631;DHT22;2837;50.990;7.124;2023-08-20T07:29:18;21.80;99.90
5631;DHT22;2837;50.990;7.124;2023-08-20T07:31:43;21.70;99.90
5631;DHT22;2837;50.990;7.124;2023-08-20T07:34:09;21.80;99.90
5631;DHT22;2837;50.990;7.124;2023-08-20T07:39:01;21.80;99.90
5631;DHT22;2837;50.990;7.124;2023-08-20T08:00:56;22.00;99.90
5631;DHT22;2837;50.990;7.124;2023-08-20T08:03:21;22.00;99.90
5631;DHT22;2837;50.990;7.124;2023-08-20T08:05:48;22.00;99.90
5631;DHT22;2837;50.990;7.124;2023-08-20T08:08:15;21.90;99.90
5631;DHT22;2837;50.990;7.124;2023-08-20T08:42:23;22.10;99.90
5631;DHT22;2837;50.990;7.124;2023-08-20T08:44:50;22.10;99.90
5631;DHT22;2837;50.990;7.124;2023-08-20T08:47:18;22.10;99.90
5631;DHT22;2837;50.990;7.124;2023-08-20T08:52:12;22.10;99.90
5631;DHT22;2837;50.990;7.124;2023-08-20T08:54:38;22.20;99.90
5631;DHT22;2837;50.990;7.124;2023-08-20T08:57:04;22.20;99.90
5631;DHT22;2837;50.990;7.124;2023-08-20T09:01:56;22.30;99.90
5631;DHT22;2837;50.990;7.124;2023-08-20T09:04:25;22.30;99.90
5631;DHT22;2837;50.990;7.124;2023-08-20T09:06:52;22.30;99.90
5631;DHT22;2837;50.990;7.124;2023-08-20T09:09:20;22.30;99.90
5631;DHT22;2837;50.990;7.124;2023-08-20T09:11:49;22.30;99.90
5631;DHT22;2837;50.990;7.124;2023-08-20T09:14:21;22.40;99.90
5631;DHT22;2837;50.990;7.124;2023-08-20T09:16:54;22.40;99.90
5631;DHT22;2837;50.990;7.124;2023-08-20T09:19:20;22.40;99.90
5631;DHT22;2837;50.990;7.124;2023-08-20T09:21:46;22.40;99.90
5631;DHT22;2837;50.990;7.124;2023-08-20T09:31:39;22.40;99.90
5631;DHT22;2837;50.990;7.124;2023-08-20T09:34:05;22.50;99.90
5631;DHT22;2837;50.990;7.124;2023-08-20T09:36:34;22.50;99.90
5631;DHT22;2837;50.990;7.124;2023-08-20T09:39:03;22.50;99.90
5631;DHT22;2837;50.990;7.124;2023-08-20T09:43:57;22.60;99.90
5631;DHT22;2837;50.990;7.124;2023-08-20T09:46:24;22.60;99.90
5631;DHT22;2837;50.990;7.124;2023-08-20T09:48:51;22.60;99.90
5631;DHT22;2837;50.990;7.124;2023-08-20T09:51:22;22.60;99.90
5631;DHT22;2837;50.990;7.124;2023-08-20T09:54:00;22.60;99.90
5631;DHT22;2837;50.990;7.124;2023-08-20T09:56:30;22.70;99.90
5631;DHT22;2837;50.990;7.124;2023-08-20T09:58:57;22.80;99.90
5631;DHT22;2837;50.990;7.124;2023-08-20T10:01:25;22.80;99.90
5631;DHT22;2837;50.990;7.124;2023-08-20T10:06:17;22.90;99.90
5631;DHT22;2837;50.990;7.124;2023-08-20T10:08:44;22.80;99.90
5631;DHT22;2837;50.990;7.124;2023-08-20T10:11:12;22.80;99.90
5631;DHT22;2837;50.990;7.124;2023-08-20T10:16:03;22.90;99.90
5631;DHT22;2837;50.990;7.124;2023-08-20T10:18:29;22.90;99.90
5631;DHT22;2837;50.990;7.124;2023-08-20T10:20:57;22.90;99.90
5631;DHT22;2837;50.990;7.124;2023-08-20T10:23:23;23.00;99.90
5631;DHT22;2837;50.990;7.124;2023-08-20T10:25:51;23.00;99.90
5631;DHT22;2837;50.990;7.124;2023-08-20T10:28:23;23.10;99.90
5631;DHT22;2837;50.990;7.124;2023-08-20T10:31:11;23.10;99.90
5631;DHT22;2837;50.990;7.124;2023-08-20T10:33:49;23.10;99.90
5631;DHT22;2837;50.990;7.124;2023-08-20T10:36:17;23.10;99.90
5631;DHT22;2837;50.990;7.124;2023-08-20T10:38:45;23.20;99.90
5631;DHT22;2837;50.990;7.124;2023-08-20T10:41:11;23.20;99.90
5631;DHT22;2837;50.990;7.124;2023-08-20T10:43:38;23.20;99.90
5631;DHT22;2837;50.990;7.124;2023-08-20T10:48:39;23.20;99.90
5631;DHT22;2837;50.990;7.124;2023-08-20T10:51:09;23.20;99.90
5631;DHT22;2837;50.990;7.124;2023-08-20T10:53:34;23.20;99.90
5631;DHT22;2837;50.990;7.124;2023-08-20T10:56:14;23.20;99.90
5631;DHT22;2837;50.990;7.124;2023-08-20T10:58:45;23.10;99.90
5631;DHT22;2837;50.990;7.124;2023-08-20T11:01:19;23.10;99.90
5631;DHT22;2837;50.990;7.124;2023-08-20T11:03:46;23.10;99.90
5631;DHT22;2837;50.990;7.124;2023-08-20T11:06:12;23.10;99.90
5631;DHT22;2837;50.990;7.124;2023-08-20T11:11:06;23.20;99.90
5631;DHT22;2837;50.990;7.124;2023-08-20T11:15:59;23.30;99.90
5631;DHT22;2837;50.990;7.124;2023-08-20T11:18:25;23.40;99.90
5631;DHT22;2837;50.990;7.124;2023-08-20T11:20:51;23.50;99.90
5631;DHT22;2837;50.990;7.124;2023-08-20T11:23:17;23.60;99.90
5631;DHT22;2837;50.990;7.124;2023-08-20T11:25:42;23.60;99.90
5631;DHT22;2837;50.990;7.124;2023-08-20T11:28:09;23.50;99.90
5631;DHT22;2837;50.990;7.124;2023-08-20T11:30:35;23.50;99.90
5631;DHT22;2837;50.990;7.124;2023-08-20T11:33:00;23.50;99.90
5631;DHT22;2837;50.990;7.124;2023-08-20T11:35:26;23.40;99.90
5631;DHT22;2837;50.990;7.124;2023-08-20T11:37:52;23.30;99.90
5631;DHT22;2837;50.990;7.124;2023-08-20T11:40:20;23.30;99.90
5631;DHT22;2837;50.990;7.124;2023-08-20T11:42:46;23.40;99.90
5631;DHT22;2837;50.990;7.124;2023-08-20T11:45:12;23.50;99.90
5631;DHT22;2837;50.990;7.124;2023-08-20T11:47:41;23.50;99.90
5631;DHT22;2837;50.990;7.124;2023-08-20T11:50:08;23.50;99.90
5631;DHT22;2837;50.990;7.124;2023-08-20T11:52:36;23.50;99.90
5631;DHT22;2837;50.990;7.124;2023-08-20T11:55:01;23.40;99.90
5631;DHT22;2837;50.990;7.124;2023-08-20T11:57:30;23.40;99.90
5631;DHT22;2837;50.990;7.124;2023-08-20T12:00:03;23.40;99.90
5631;DHT22;2837;50.990;7.124;2023-08-20T12:02:40;23.30;99.90
5631;DHT22;2837;50.990;7.124;2023-08-20T12:05:07;23.40;99.90
5631;DHT22;2837;50.990;7.124;2023-08-20T12:07:33;23.40;99.90
5631;DHT22;2837;50.990;7.124;2023-08-20T12:09:58;23.40;99.90
5631;DHT22;2837;50.990;7.124;2023-08-20T12:15:10;23.40;99.90
5631;DHT22;2837;50.990;7.124;2023-08-20T12:17:36;23.30;99.90
5631;DHT22;2837;50.990;7.124;2023-08-20T12:20:01;23.30;99.90
5631;DHT22;2837;50.990;7.124;2023-08-20T12:22:35;23.30;99.90
5631;DHT22;2837;50.990;7.124;2023-08-20T12:25:00;23.30;99.90
5631;DHT22;2837;50.990;7.124;2023-08-20T12:27:26;23.30;99.90
5631;DHT22;2837;50.990;7.124;2023-08-20T12:32:18;23.40;99.90
5631;DHT22;2837;50.990;7.124;2023-08-20T12:37:10;23.40;99.90
5631;DHT22;2837;50.990;7.124;2023-08-20T12:44:28;23.30;99.90
5631;DHT22;2837;50.990;7.124;2023-08-20T12:46:53;23.30;99.90
5631;DHT22;2837;50.990;7.124;2023-08-20T12:49:19;23.30;99.90
5631;DHT22;2837;50.990;7.124;2023-08-20T12:51:44;23.20;99.90
5631;DHT22;2837;50.990;7.124;2023-08-20T12:56:36;23.50;99.90
5631;DHT22;2837;50.990;7.124;2023-08-20T12:59:02;23.60;99.90
5631;DHT22;2837;50.990;7.124;2023-08-20T13:01:28;23.50;99.90
5631;DHT22;2837;50.990;7.124;2023-08-20T13:03:54;23.50;99.90
5631;DHT22;2837;50.990;7.124;2023-08-20T13:06:19;23.60;99.90
5631;DHT22;2837;50.990;7.124;2023-08-20T13:08:45;23.60;99.90
5631;DHT22;2837;50.990;7.124;2023-08-20T13:11:13;23.60;99.90
5631;DHT22;2837;50.990;7.124;2023-08-20T13:13:42;23.70;99.90
5631;DHT22;2837;50.990;7.124;2023-08-20T13:16:08;23.80;99.90
5631;DHT22;2837;50.990;7.124;2023-08-20T13:18:34;23.80;99.90
5631;DHT22;2837;50.990;7.124;2023-08-20T13:21:01;23.80;99.90
5631;DHT22;2837;50.990;7.124;2023-08-20T13:23:26;23.90;99.90
5631;DHT22;2837;50.990;7.124;2023-08-20T13:28:18;23.80;99.90
5631;DHT22;2837;50.990;7.124;2023-08-20T13:30:44;23.80;99.90
5631;DHT22;2837;50.990;7.124;2023-08-20T13:35:35;23.80;99.90
5631;DHT22;2837;50.990;7.124;2023-08-20T13:38:01;23.80;99.90
5631;DHT22;2837;50.990;7.124;2023-08-20T13:40:27;23.70;99.90
5631;DHT22;2837;50.990;7.124;2023-08-20T13:42:52;23.60;99.90
5631;DHT22;2837;50.990;7.124;2023-08-20T13:50:10;23.50;99.90
5631;DHT22;2837;50.990;7.124;2023-08-20T13:52:35;23.50;99.90
5631;DHT22;2837;50.990;7.124;2023-08-20T13:57:28;23.60;99.90
5631;DHT22;2837;50.990;7.124;2023-08-20T14:02:20;23.60;99.90
5631;DHT22;2837;50.990;7.124;2023-08-20T14:04:47;23.60;99.90
5631;DHT22;2837;50.990;7.124;2023-08-20T14:07:12;23.50;99.90
5631;DHT22;2837;50.990;7.124;2023-08-20T14:12:05;23.60;99.90
5631;DHT22;2837;50.990;7.124;2023-08-20T14:14:31;23.60;99.90
5631;DHT22;2837;50.990;7.124;2023-08-20T14:16:56;23.60;99.90
5631;DHT22;2837;50.990;7.124;2023-08-20T14:19:22;23.60;99.90
5631;DHT22;2837;50.990;7.124;2023-08-20T14:21:48;23.70;99.90
5631;DHT22;2837;50.990;7.124;2023-08-20T14:24:13;23.70;99.90
5631;DHT22;2837;50.990;7.124;2023-08-20T14:29:05;23.60;99.90
5631;DHT22;2837;50.990;7.124;2023-08-20T14:31:31;23.50;99.90
5631;DHT22;2837;50.990;7.124;2023-08-20T14:33:57;23.60;99.90
5631;DHT22;2837;50.990;7.124;2023-08-20T14:36:22;23.60;99.90
5631;DHT22;2837;50.990;7.124;2023-08-20T14:38:48;23.60;99.90
5631;DHT22;2837;50.990;7.124;2023-08-20T14:41:13;23.60;99.90
5631;DHT22;2837;50.990;7.124;2023-08-20T14:46:07;23.70;99.90
5631;DHT22;2837;50.990;7.124;2023-08-20T14:51:00;23.90;99.90
5631;DHT22;2837;50.990;7.124;2023-08-20T14:55:52;24.10;99.90
5631;DHT22;2837;50.990;7.124;2023-08-20T15:03:09;24.20;99.90
5631;DHT22;2837;50.990;7.124;2023-08-20T15:08:01;24.00;99.90
5631;DHT22;2837;50.990;7.124;2023-08-20T15:10:30;24.10;99.90
5631;DHT22;2837;50.990;7.124;2023-08-20T15:12:55;24.10;99.90
5631;DHT22;2837;50.990;7.124;2023-08-20T15:15:21;24.10;99.90
5631;DHT22;2837;50.990;7.124;2023-08-20T15:17:46;24.10;99.90
5631;DHT22;2837;50.990;7.124;2023-08-20T15:27:33;24.10;99.90
5631;DHT22;2837;50.990;7.124;2023-08-20T15:30:00;24.10;99.90
5631;DHT22;2837;50.990;7.124;2023-08-20T15:32:25;24.10;99.90
5631;DHT22;2837;50.990;7.124;2023-08-20T15:34:52;24.10;99.90
5631;DHT22;2837;50.990;7.124;2023-08-20T15:37:18;24.20;99.90
5631;DHT22;2837;50.990;7.124;2023-08-20T15:39:43;24.10;99.90
5631;DHT22;2837;50.990;7.124;2023-08-20T15:42:09;24.10;99.90
5631;DHT22;2837;50.990;7.124;2023-08-20T15:44:34;24.10;99.90
5631;DHT22;2837;50.990;7.124;2023-08-20T15:47:00;24.10;99.90
5631;DHT22;2837;50.990;7.124;2023-08-20T15:49:26;24.10;99.90
5631;DHT22;2837;50.990;7.124;2023-08-20T15:51:53;24.20;99.90
5631;DHT22;2837;50.990;7.124;2023-08-20T15:56:45;24.40;99.90
5631;DHT22;2837;50.990;7.124;2023-08-20T15:59:11;24.40;99.90
5631;DHT22;2837;50.990;7.124;2023-08-20T16:01:36;24.50;99.90
5631;DHT22;2837;50.990;7.124;2023-08-20T16:04:03;24.50;99.90
5631;DHT22;2837;50.990;7.124;2023-08-20T16:06:29;24.60;99.90
5631;DHT22;2837;50.990;7.124;2023-08-20T16:08:55;24.70;99.90
5631;DHT22;2837;50.990;7.124;2023-08-20T16:11:20;24.70;99.90
5631;DHT22;2837;50.990;7.124;2023-08-20T16:16:13;24.80;99.90
5631;DHT22;2837;50.990;7.124;2023-08-20T16:18:39;24.90;99.90
5631;DHT22;2837;50.990;7.124;2023-08-20T16:21:05;24.90;99.90
5631;DHT22;2837;50.990;7.124;2023-08-20T16:25:56;24.70;99.90
5631;DHT22;2837;50.990;7.124;2023-08-20T16:30:47;24.70;99.90
5631;DHT22;2837;50.990;7.124;2023-08-20T16:33:13;24.70;99.90
5631;DHT22;2837;50.990;7.124;2023-08-20T16:38:05;24.80;99.90
5631;DHT22;2837;50.990;7.124;2023-08-20T16:40:30;24.70;99.90
5631;DHT22;2837;50.990;7.124;2023-08-20T16:42:58;24.70;99.90
5631;DHT22;2837;50.990;7.124;2023-08-20T16:45:24;24.70;99.90
5631;DHT22;2837;50.990;7.124;2023-08-20T16:47:50;24.80;99.90
5631;DHT22;2837;50.990;7.124;2023-08-20T16:52:41;24.60;99.90
5631;DHT22;2837;50.990;7.124;2023-08-20T16:55:07;24.50;99.90
5631;DHT22;2837;50.990;7.124;2023-08-20T16:59:59;24.50;99.90
5631;DHT22;2837;50.990;7.124;2023-08-20T17:02:24;24.60;99.90
5631;DHT22;2837;50.990;7.124;2023-08-20T17:04:50;24.60;99.90
5631;DHT22;2837;50.990;7.124;2023-08-20T17:07:16;24.60;99.90
5631;DHT22;2837;50.990;7.124;2023-08-20T17:12:08;24.70;99.90
5631;DHT22;2837;50.990;7.124;2023-08-20T17:16:59;24.80;99.90
5631;DHT22;2837;50.990;7.124;2023-08-20T17:19:25;24.80;99.90
5631;DHT22;2837;50.990;7.124;2023-08-20T17:21:51;24.90;99.90
5631;DHT22;2837;50.990;7.124;2023-08-20T17:24:17;24.90;99.90
5631;DHT22;2837;50.990;7.124;2023-08-20T17:26:43;24.90;99.90
5631;DHT22;2837;50.990;7.124;2023-08-20T17:29:09;24.90;99.90
5631;DHT22;2837;50.990;7.124;2023-08-20T17:31:35;24.80;99.90
5631;DHT22;2837;50.990;7.124;2023-08-20T17:34:02;24.80;99.90
5631;DHT22;2837;50.990;7.124;2023-08-20T17:36:31;24.80;99.90
5631;DHT22;2837;50.990;7.124;2023-08-20T17:38:57;24.80;99.90
5631;DHT22;2837;50.990;7.124;2023-08-20T17:41:23;24.90;99.90
5631;DHT22;2837;50.990;7.124;2023-08-20T17:43:48;24.90;99.90
5631;DHT22;2837;50.990;7.124;2023-08-20T17:48:40;24.60;99.90
5631;DHT22;2837;50.990;7.124;2023-08-20T17:51:05;24.60;99.90
5631;DHT22;2837;50.990;7.124;2023-08-20T17:53:31;24.50;99.90
5631;DHT22;2837;50.990;7.124;2023-08-20T17:55:56;24.50;99.90
5631;DHT22;2837;50.990;7.124;2023-08-20T17:58:22;24.40;99.90
5631;DHT22;2837;50.990;7.124;2023-08-20T18:00:48;24.40;99.90
5631;DHT22;2837;50.990;7.124;2023-08-20T18:03:15;24.30;99.90
5631;DHT22;2837;50.990;7.124;2023-08-20T18:05:42;24.40;99.90
5631;DHT22;2837;50.990;7.124;2023-08-20T18:10:34;24.30;99.90
5631;DHT22;2837;50.990;7.124;2023-08-20T18:13:00;24.30;99.90
5631;DHT22;2837;50.990;7.124;2023-08-20T18:15:27;24.30;99.90
5631;DHT22;2837;50.990;7.124;2023-08-20T18:20:19;24.20;99.90
5631;DHT22;2837;50.990;7.124;2023-08-20T18:22:46;24.20;99.90
5631;DHT22;2837;50.990;7.124;2023-08-20T18:25:12;24.10;99.90
5631;DHT22;2837;50.990;7.124;2023-08-20T18:30:05;23.90;99.90
5631;DHT22;2837;50.990;7.124;2023-08-20T18:32:32;23.90;99.90
5631;DHT22;2837;50.990;7.124;2023-08-20T18:34:57;23.80;99.90
5631;DHT22;2837;50.990;7.124;2023-08-20T18:37:23;23.70;99.90
5631;DHT22;2837;50.990;7.124;2023-08-20T18:39:49;23.70;99.90
5631;DHT22;2837;50.990;7.124;2023-08-20T18:49:33;23.50;99.90
5631;DHT22;2837;50.990;7.124;2023-08-20T18:51:59;23.50;99.90
5631;DHT22;2837;50.990;7.124;2023-08-20T18:56:51;23.40;99.90
5631;DHT22;2837;50.990;7.124;2023-08-20T18:59:16;23.40;99.90
5631;DHT22;2837;50.990;7.124;2023-08-20T19:01:43;23.30;99.90
5631;DHT22;2837;50.990;7.124;2023-08-20T19:04:09;23.30;99.90
5631;DHT22;2837;50.990;7.124;2023-08-20T19:06:34;23.30;99.90
5631;DHT22;2837;50.990;7.124;2023-08-20T19:09:00;23.20;99.90
5631;DHT22;2837;50.990;7.124;2023-08-20T19:11:26;23.20;99.90
5631;DHT22;2837;50.990;7.124;2023-08-20T19:13:52;23.20;99.90
5631;DHT22;2837;50.990;7.124;2023-08-20T19:18:43;23.20;99.90
5631;DHT22;2837;50.990;7.124;2023-08-20T19:23:35;23.10;99.90
5631;DHT22;2837;50.990;7.124;2023-08-20T19:28:26;23.00;99.90
5631;DHT22;2837;50.990;7.124;2023-08-20T19:30:54;23.00;99.90
5631;DHT22;2837;50.990;7.124;2023-08-20T19:33:20;23.00;99.90
5631;DHT22;2837;50.990;7.124;2023-08-20T19:38:14;23.00;99.90
5631;DHT22;2837;50.990;7.124;2023-08-20T19:40:40;23.00;99.90
5631;DHT22;2837;50.990;7.124;2023-08-20T19:45:32;22.90;99.90
5631;DHT22;2837;50.990;7.124;2023-08-20T19:50:24;22.80;99.90
5631;DHT22;2837;50.990;7.124;2023-08-20T19:55:17;22.80;99.90
5631;DHT22;2837;50.990;7.124;2023-08-20T19:57:43;22.80;99.90
5631;DHT22;2837;50.990;7.124;2023-08-20T20:00:10;22.80;99.90
5631;DHT22;2837;50.990;7.124;2023-08-20T20:02:39;22.70;99.90
5631;DHT22;2837;50.990;7.124;2023-08-20T20:05:09;22.70;99.90
5631;DHT22;2837;50.990;7.124;2023-08-20T20:07:35;22.80;99.90
5631;DHT22;2837;50.990;7.124;2023-08-20T20:10:02;22.60;99.90
5631;DHT22;2837;50.990;7.124;2023-08-20T20:12:29;22.70;99.90
5631;DHT22;2837;50.990;7.124;2023-08-20T20:14:55;22.60;99.90
5631;DHT22;2837;50.990;7.124;2023-08-20T20:17:21;22.60;99.90
5631;DHT22;2837;50.990;7.124;2023-08-20T20:19:46;22.60;99.90
5631;DHT22;2837;50.990;7.124;2023-08-20T20:22:12;22.60;99.90
5631;DHT22;2837;50.990;7.124;2023-08-20T20:24:38;22.60;99.90
5631;DHT22;2837;50.990;7.124;2023-08-20T20:27:04;22.60;99.90
5631;DHT22;2837;50.990;7.124;2023-08-20T20:39:13;22.50;99.90
5631;DHT22;2837;50.990;7.124;2023-08-20T20:44:06;22.50;99.90
5631;DHT22;2837;50.990;7.124;2023-08-20T20:48:57;22.50;99.90
5631;DHT22;2837;50.990;7.124;2023-08-20T20:51:23;22.50;99.90
5631;DHT22;2837;50.990;7.124;2023-08-20T20:53:48;22.50;99.90
